sensor_id;sensor_type;location;lat;lon;timestamp;temperature;humidity
14733;DHT22;7457;50.960;6.830;2023-06-01T00:02:20;14.40;72.10
14733;DHT22;7457;50.960;6.830;2023-06-01T00:04:45;14.40;71.90
14733;DHT22;7457;50.960;6.830;2023-06-01T00:07:13;14.40;71.80
14733;DHT22;7457;50.960;6.830;2023-06-01T00:09:39;14.40;71.70
14733;DHT22;7457;50.960;6.830;2023-06-01T00:12:06;14.40;71.60
14733;DHT22;7457;50.960;6.830;2023-06-01T00:14:31;14.40;71.60
14733;DHT22;7457;50.960;6.830;2023-06-01T00:16:57;14.40;71.60
14733;DHT22;7457;50.960;6.830;2023-06-01T00:19:24;14.40;71.60
14733;DHT22;7457;50.960;6.830;2023-06-01T00:21:52;14.40;71.70
14733;DHT22;7457;50.960;6.830;2023-06-01T00:24:19;14.40;71.80
14733;DHT22;7457;50.960;6.830;2023-06-01T00:26:46;14.40;71.80
14733;DHT22;7457;50.960;6.830;2023-06-01T00:29:11;14.40;71.80
14733;DHT22;7457;50.960;6.830;2023-06-01T00:31:38;14.40;71.80
14733;DHT22;7457;50.960;6.830;2023-06-01T00:34:04;14.40;71.90
14733;DHT22;7457;50.960;6.830;2023-06-01T00:36:29;14.40;72.00
14733;DHT22;7457;50.960;6.830;2023-06-01T00:38:56;14.30;72.10
14733;DHT22;7457;50.960;6.830;2023-06-01T00:41:27;14.30;72.20
14733;DHT22;7457;50.960;6.830;2023-06-01T00:43:53;14.20;72.30
14733;DHT22;7457;50.960;6.830;2023-06-01T00:46:19;14.20;72.50
14733;DHT22;7457;50.960;6.830;2023-06-01T00:48:44;14.20;72.60
14733;DHT22;7457;50.960;6.830;2023-06-01T00:51:10;14.10;72.70
14733;DHT22;7457;50.960;6.830;2023-06-01T00:53:37;14.00;72.80
14733;DHT22;7457;50.960;6.830;2023-06-01T00:56:03;14.00;73.00
14733;DHT22;7457;50.960;6.830;2023-06-01T00:58:30;13.90;73.20
14733;DHT22;7457;50.960;6.830;2023-06-01T01:00:55;13.90;73.40
14733;DHT22;7457;50.960;6.830;2023-06-01T01:03:21;13.90;73.60
14733;DHT22;7457;50.960;6.830;2023-06-01T01:05:55;13.80;73.80
14733;DHT22;7457;50.960;6.830;2023-06-01T01:08:40;13.80;73.90
14733;DHT22;7457;50.960;6.830;2023-06-01T01:11:19;13.80;74.00
14733;DHT22;7457;50.960;6.830;2023-06-01T01:14:07;13.80;74.10
14733;DHT22;7457;50.960;6.830;2023-06-01T01:30:22;13.60;74.50
14733;DHT22;7457;50.960;6.830;2023-06-01T01:32:53;13.60;74.50
14733;DHT22;7457;50.960;6.830;2023-06-01T01:35:20;13.50;74.80
14733;DHT22;7457;50.960;6.830;2023-06-01T01:37:53;13.50;74.80
14733;DHT22;7457;50.960;6.830;2023-06-01T01:40:19;13.50;75.00
14733;DHT22;7457;50.960;6.830;2023-06-01T01:42:45;13.40;75.00
14733;DHT22;7457;50.960;6.830;2023-06-01T01:45:12;13.40;75.20
14733;DHT22;7457;50.960;6.830;2023-06-01T01:47:51;13.40;75.40
14733;DHT22;7457;50.960;6.830;2023-06-01T01:50:20;13.40;75.60
14733;DHT22;7457;50.960;6.830;2023-06-01T01:52:48;13.30;75.60
14733;DHT22;7457;50.960;6.830;2023-06-01T01:55:14;13.30;75.70
14733;DHT22;7457;50.960;6.830;2023-06-01T01:57:43;13.30;75.90
14733;DHT22;7457;50.960;6.830;2023-06-01T02:00:10;13.30;76.00
14733;DHT22;7457;50.960;6.830;2023-06-01T02:02:38;13.30;76.10
14733;DHT22;7457;50.960;6.830;2023-06-01T02:05:04;13.30;76.00
14733;DHT22;7457;50.960;6.830;2023-06-01T02:07:30;13.20;76.10
14733;DHT22;7457;50.960;6.830;2023-06-01T02:09:56;13.20;76.20
14733;DHT22;7457;50.960;6.830;2023-06-01T02:12:21;13.20;76.30
14733;DHT22;7457;50.960;6.830;2023-06-01T02:14:47;13.10;76.30
14733;DHT22;7457;50.960;6.830;2023-06-01T02:17:13;13.10;76.40
14733;DHT22;7457;50.960;6.830;2023-06-01T02:19:42;13.10;76.50
14733;DHT22;7457;50.960;6.830;2023-06-01T02:22:07;13.00;76.70
14733;DHT22;7457;50.960;6.830;2023-06-01T02:24:33;13.00;76.80
14733;DHT22;7457;50.960;6.830;2023-06-01T02:26:58;13.00;76.90
14733;DHT22;7457;50.960;6.830;2023-06-01T02:29:24;13.00;77.00
14733;DHT22;7457;50.960;6.830;2023-06-01T02:31:50;12.90;77.10
14733;DHT22;7457;50.960;6.830;2023-06-01T02:34:16;12.90;77.20
14733;DHT22;7457;50.960;6.830;2023-06-01T02:36:42;12.90;77.30
14733;DHT22;7457;50.960;6.830;2023-06-01T02:39:08;12.80;77.50
14733;DHT22;7457;50.960;6.830;2023-06-01T02:41:34;12.80;77.60
14733;DHT22;7457;50.960;6.830;2023-06-01T02:44:00;12.80;77.60
14733;DHT22;7457;50.960;6.830;2023-06-01T02:46:26;12.70;77.80
14733;DHT22;7457;50.960;6.830;2023-06-01T02:48:52;12.60;78.00
14733;DHT22;7457;50.960;6.830;2023-06-01T02:51:18;12.60;78.10
14733;DHT22;7457;50.960;6.830;2023-06-01T02:53:47;12.60;78.30
14733;DHT22;7457;50.960;6.830;2023-06-01T02:56:12;12.50;78.50
14733;DHT22;7457;50.960;6.830;2023-06-01T02:58:38;12.50;78.70
14733;DHT22;7457;50.960;6.830;2023-06-01T03:01:04;12.50;78.90
14733;DHT22;7457;50.960;6.830;2023-06-01T03:03:30;12.40;79.10
14733;DHT22;7457;50.960;6.830;2023-06-01T03:05:56;12.50;79.20
14733;DHT22;7457;50.960;6.830;2023-06-01T03:08:23;12.40;79.70
14733;DHT22;7457;50.960;6.830;2023-06-01T03:10:50;12.40;79.70
14733;DHT22;7457;50.960;6.830;2023-06-01T03:13:16;12.40;80.00
14733;DHT22;7457;50.960;6.830;2023-06-01T03:15:41;12.40;80.10
14733;DHT22;7457;50.960;6.830;2023-06-01T03:18:07;12.40;80.30
14733;DHT22;7457;50.960;6.830;2023-06-01T03:20:34;12.40;80.60
14733;DHT22;7457;50.960;6.830;2023-06-01T03:23:00;12.40;80.60
14733;DHT22;7457;50.960;6.830;2023-06-01T03:25:26;12.40;80.80
14733;DHT22;7457;50.960;6.830;2023-06-01T03:27:51;12.40;80.90
14733;DHT22;7457;50.960;6.830;2023-06-01T03:30:17;12.40;81.20
14733;DHT22;7457;50.960;6.830;2023-06-01T03:32:44;12.40;81.40
14733;DHT22;7457;50.960;6.830;2023-06-01T03:35:11;12.40;81.60
14733;DHT22;7457;50.960;6.830;2023-06-01T03:37:39;12.40;81.80
14733;DHT22;7457;50.960;6.830;2023-06-01T03:40:06;12.40;81.90
14733;DHT22;7457;50.960;6.830;2023-06-01T03:42:41;12.40;82.10
14733;DHT22;7457;50.960;6.830;2023-06-01T03:45:07;12.40;82.20
14733;DHT22;7457;50.960;6.830;2023-06-01T03:47:33;12.30;82.30
14733;DHT22;7457;50.960;6.830;2023-06-01T03:50:00;12.30;82.50
14733;DHT22;7457;50.960;6.830;2023-06-01T03:52:27;12.30;82.90
14733;DHT22;7457;50.960;6.830;2023-06-01T03:54:53;12.30;83.10
14733;DHT22;7457;50.960;6.830;2023-06-01T03:57:19;12.30;83.30
14733;DHT22;7457;50.960;6.830;2023-06-01T03:59:46;12.20;83.60
14733;DHT22;7457;50.960;6.830;2023-06-01T04:02:12;12.30;84.10
14733;DHT22;7457;50.960;6.830;2023-06-01T04:04:38;12.30;84.30
14733;DHT22;7457;50.960;6.830;2023-06-01T04:07:06;12.30;84.60
14733;DHT22;7457;50.960;6.830;2023-06-01T04:09:32;12.30;84.50
14733;DHT22;7457;50.960;6.830;2023-06-01T04:11:58;12.40;84.60
14733;DHT22;7457;50.960;6.830;2023-06-01T04:14:24;12.40;84.90
14733;DHT22;7457;50.960;6.830;2023-06-01T04:16:49;12.40;84.90
14733;DHT22;7457;50.960;6.830;2023-06-01T04:19:15;12.50;84.90
14733;DHT22;7457;50.960;6.830;2023-06-01T04:21:42;12.60;85.00
14733;DHT22;7457;50.960;6.830;2023-06-01T04:24:08;12.60;85.20
14733;DHT22;7457;50.960;6.830;2023-06-01T04:26:35;12.70;85.30
14733;DHT22;7457;50.960;6.830;2023-06-01T04:29:01;12.80;85.90
14733;DHT22;7457;50.960;6.830;2023-06-01T04:31:28;13.10;86.00
14733;DHT22;7457;50.960;6.830;2023-06-01T04:33:54;13.50;85.30
14733;DHT22;7457;50.960;6.830;2023-06-01T04:36:22;13.80;84.00
14733;DHT22;7457;50.960;6.830;2023-06-01T04:38:48;13.90;83.40
14733;DHT22;7457;50.960;6.830;2023-06-01T04:41:20;14.10;84.30
14733;DHT22;7457;50.960;6.830;2023-06-01T04:43:53;14.40;84.20
14733;DHT22;7457;50.960;6.830;2023-06-01T04:46:20;15.00;83.50
14733;DHT22;7457;50.960;6.830;2023-06-01T04:48:49;15.50;82.30
14733;DHT22;7457;50.960;6.830;2023-06-01T04:51:17;15.90;81.20
14733;DHT22;7457;50.960;6.830;2023-06-01T04:53:48;16.30;79.90
14733;DHT22;7457;50.960;6.830;2023-06-01T04:56:19;16.50;78.80
14733;DHT22;7457;50.960;6.830;2023-06-01T04:58:48;16.60;78.20
14733;DHT22;7457;50.960;6.830;2023-06-01T05:01:14;16.50;77.70
14733;DHT22;7457;50.960;6.830;2023-06-01T05:03:45;16.40;77.40
14733;DHT22;7457;50.960;6.830;2023-06-01T05:06:12;16.10;77.50
14733;DHT22;7457;50.960;6.830;2023-06-01T05:08:39;15.90;77.90
14733;DHT22;7457;50.960;6.830;2023-06-01T05:11:05;15.80;78.40
14733;DHT22;7457;50.960;6.830;2023-06-01T05:13:33;15.70;78.70
14733;DHT22;7457;50.960;6.830;2023-06-01T05:15:59;15.70;79.00
14733;DHT22;7457;50.960;6.830;2023-06-01T05:18:24;15.90;79.30
14733;DHT22;7457;50.960;6.830;2023-06-01T05:20:50;16.20;79.00
14733;DHT22;7457;50.960;6.830;2023-06-01T05:23:17;16.60;78.00
14733;DHT22;7457;50.960;6.830;2023-06-01T05:25:42;16.90;76.60
14733;DHT22;7457;50.960;6.830;2023-06-01T05:28:08;16.80;75.30
14733;DHT22;7457;50.960;6.830;2023-06-01T05:30:34;16.50;75.40
14733;DHT22;7457;50.960;6.830;2023-06-01T05:33:00;16.20;75.80
14733;DHT22;7457;50.960;6.830;2023-06-01T05:35:26;16.00;76.40
14733;DHT22;7457;50.960;6.830;2023-06-01T05:37:52;15.90;76.70
14733;DHT22;7457;50.960;6.830;2023-06-01T05:40:17;15.80;77.20
14733;DHT22;7457;50.960;6.830;2023-06-01T05:42:43;15.80;77.00
14733;DHT22;7457;50.960;6.830;2023-06-01T05:45:09;15.70;76.60
14733;DHT22;7457;50.960;6.830;2023-06-01T05:47:35;15.60;77.10
14733;DHT22;7457;50.960;6.830;2023-06-01T05:50:00;15.50;77.20
14733;DHT22;7457;50.960;6.830;2023-06-01T05:52:27;15.40;77.50
14733;DHT22;7457;50.960;6.830;2023-06-01T05:54:53;15.30;77.60
14733;DHT22;7457;50.960;6.830;2023-06-01T05:57:20;15.30;77.80
14733;DHT22;7457;50.960;6.830;2023-06-01T05:59:46;15.20;78.00
14733;DHT22;7457;50.960;6.830;2023-06-01T06:02:12;15.20;78.10
14733;DHT22;7457;50.960;6.830;2023-06-01T06:04:39;15.10;78.10
14733;DHT22;7457;50.960;6.830;2023-06-01T06:07:05;15.10;78.40
14733;DHT22;7457;50.960;6.830;2023-06-01T06:09:31;15.10;77.60
14733;DHT22;7457;50.960;6.830;2023-06-01T06:11:57;15.20;78.30
14733;DHT22;7457;50.960;6.830;2023-06-01T06:14:24;15.20;78.40
14733;DHT22;7457;50.960;6.830;2023-06-01T06:16:50;15.20;78.30
14733;DHT22;7457;50.960;6.830;2023-06-01T06:19:15;15.20;78.20
14733;DHT22;7457;50.960;6.830;2023-06-01T06:21:42;15.20;78.10
14733;DHT22;7457;50.960;6.830;2023-06-01T06:24:08;15.20;78.10
14733;DHT22;7457;50.960;6.830;2023-06-01T06:26:34;15.30;78.00
14733;DHT22;7457;50.960;6.830;2023-06-01T06:28:59;15.20;77.10
14733;DHT22;7457;50.960;6.830;2023-06-01T06:31:25;15.20;77.10
14733;DHT22;7457;50.960;6.830;2023-06-01T06:33:51;15.10;77.20
14733;DHT22;7457;50.960;6.830;2023-06-01T06:36:17;15.00;78.00
14733;DHT22;7457;50.960;6.830;2023-06-01T06:38:44;15.10;78.30
14733;DHT22;7457;50.960;6.830;2023-06-01T06:41:10;15.20;77.80
14733;DHT22;7457;50.960;6.830;2023-06-01T06:43:35;15.40;77.10
14733;DHT22;7457;50.960;6.830;2023-06-01T06:46:02;15.40;77.00
14733;DHT22;7457;50.960;6.830;2023-06-01T06:48:28;15.30;76.70
14733;DHT22;7457;50.960;6.830;2023-06-01T06:50:53;15.20;76.60
14733;DHT22;7457;50.960;6.830;2023-06-01T06:53:19;15.10;77.30
14733;DHT22;7457;50.960;6.830;2023-06-01T06:55:44;15.10;77.50
14733;DHT22;7457;50.960;6.830;2023-06-01T06:58:10;15.30;77.30
14733;DHT22;7457;50.960;6.830;2023-06-01T07:00:37;15.30;77.30
14733;DHT22;7457;50.960;6.830;2023-06-01T07:03:02;15.40;77.80
14733;DHT22;7457;50.960;6.830;2023-06-01T07:05:29;15.60;77.40
14733;DHT22;7457;50.960;6.830;2023-06-01T07:07:55;15.90;77.70
14733;DHT22;7457;50.960;6.830;2023-06-01T07:10:21;16.00;76.10
14733;DHT22;7457;50.960;6.830;2023-06-01T07:12:46;16.10;75.90
14733;DHT22;7457;50.960;6.830;2023-06-01T07:15:13;16.20;75.50
14733;DHT22;7457;50.960;6.830;2023-06-01T07:17:38;16.30;75.30
14733;DHT22;7457;50.960;6.830;2023-06-01T07:20:04;16.40;74.90
14733;DHT22;7457;50.960;6.830;2023-06-01T07:22:36;16.50;74.70
14733;DHT22;7457;50.960;6.830;2023-06-01T07:25:01;16.80;75.00
14733;DHT22;7457;50.960;6.830;2023-06-01T07:27:27;17.10;73.10
14733;DHT22;7457;50.960;6.830;2023-06-01T07:29:53;17.40;72.10
14733;DHT22;7457;50.960;6.830;2023-06-01T07:32:24;17.40;71.40
14733;DHT22;7457;50.960;6.830;2023-06-01T07:34:51;17.30;71.50
14733;DHT22;7457;50.960;6.830;2023-06-01T07:37:17;17.20;71.40
14733;DHT22;7457;50.960;6.830;2023-06-01T07:39:48;16.90;71.40
14733;DHT22;7457;50.960;6.830;2023-06-01T07:42:14;16.80;72.10
14733;DHT22;7457;50.960;6.830;2023-06-01T07:44:40;16.80;72.30
14733;DHT22;7457;50.960;6.830;2023-06-01T07:47:06;16.70;71.80
14733;DHT22;7457;50.960;6.830;2023-06-01T07:49:34;16.60;71.80
14733;DHT22;7457;50.960;6.830;2023-06-01T07:52:04;16.60;72.10
14733;DHT22;7457;50.960;6.830;2023-06-01T07:54:30;16.60;71.80
14733;DHT22;7457;50.960;6.830;2023-06-01T07:56:56;16.50;71.60
14733;DHT22;7457;50.960;6.830;2023-06-01T07:59:22;16.40;71.80
14733;DHT22;7457;50.960;6.830;2023-06-01T08:01:51;16.40;72.40
14733;DHT22;7457;50.960;6.830;2023-06-01T08:04:18;16.50;72.50
14733;DHT22;7457;50.960;6.830;2023-06-01T08:06:46;16.60;72.20
14733;DHT22;7457;50.960;6.830;2023-06-01T08:09:12;16.80;71.90
14733;DHT22;7457;50.960;6.830;2023-06-01T08:11:38;16.90;71.30
14733;DHT22;7457;50.960;6.830;2023-06-01T08:14:03;17.00;71.10
14733;DHT22;7457;50.960;6.830;2023-06-01T08:16:33;17.00;70.60
14733;DHT22;7457;50.960;6.830;2023-06-01T08:18:58;17.00;70.40
14733;DHT22;7457;50.960;6.830;2023-06-01T08:21:25;17.00;70.60
14733;DHT22;7457;50.960;6.830;2023-06-01T08:23:52;17.10;70.90
14733;DHT22;7457;50.960;6.830;2023-06-01T08:26:20;17.30;70.40
14733;DHT22;7457;50.960;6.830;2023-06-01T08:28:46;17.60;69.50
14733;DHT22;7457;50.960;6.830;2023-06-01T08:31:20;17.80;68.70
14733;DHT22;7457;50.960;6.830;2023-06-01T08:33:47;18.00;68.30
14733;DHT22;7457;50.960;6.830;2023-06-01T08:36:13;18.00;68.10
14733;DHT22;7457;50.960;6.830;2023-06-01T08:38:39;18.00;68.20
14733;DHT22;7457;50.960;6.830;2023-06-01T08:41:14;18.00;68.30
14733;DHT22;7457;50.960;6.830;2023-06-01T08:43:45;18.00;68.20
14733;DHT22;7457;50.960;6.830;2023-06-01T08:46:15;18.10;68.20
14733;DHT22;7457;50.960;6.830;2023-06-01T08:48:43;18.20;67.90
14733;DHT22;7457;50.960;6.830;2023-06-01T08:51:09;18.40;67.70
14733;DHT22;7457;50.960;6.830;2023-06-01T08:53:35;18.50;67.30
14733;DHT22;7457;50.960;6.830;2023-06-01T08:56:04;18.60;67.10
14733;DHT22;7457;50.960;6.830;2023-06-01T08:58:30;18.70;67.00
14733;DHT22;7457;50.960;6.830;2023-06-01T09:00:56;18.90;67.10
14733;DHT22;7457;50.960;6.830;2023-06-01T09:03:23;19.20;66.70
14733;DHT22;7457;50.960;6.830;2023-06-01T09:05:49;19.70;65.70
14733;DHT22;7457;50.960;6.830;2023-06-01T09:08:15;20.40;64.10
14733;DHT22;7457;50.960;6.830;2023-06-01T09:10:41;21.00;62.90
14733;DHT22;7457;50.960;6.830;2023-06-01T09:13:07;21.60;61.40
14733;DHT22;7457;50.960;6.830;2023-06-01T09:15:33;22.00;60.20
14733;DHT22;7457;50.960;6.830;2023-06-01T09:18:07;22.40;59.00
14733;DHT22;7457;50.960;6.830;2023-06-01T09:20:33;22.60;58.00
14733;DHT22;7457;50.960;6.830;2023-06-01T09:22:58;22.90;57.90
14733;DHT22;7457;50.960;6.830;2023-06-01T09:25:25;23.30;57.10
14733;DHT22;7457;50.960;6.830;2023-06-01T09:27:56;23.60;56.40
14733;DHT22;7457;50.960;6.830;2023-06-01T09:30:24;23.90;55.40
14733;DHT22;7457;50.960;6.830;2023-06-01T09:33:05;24.10;54.80
14733;DHT22;7457;50.960;6.830;2023-06-01T09:35:47;24.30;54.50
14733;DHT22;7457;50.960;6.830;2023-06-01T09:38:25;24.60;53.20
14733;DHT22;7457;50.960;6.830;2023-06-01T09:41:01;24.70;53.10
14733;DHT22;7457;50.960;6.830;2023-06-01T09:43:28;24.80;52.50
14733;DHT22;7457;50.960;6.830;2023-06-01T09:46:08;24.90;52.60
14733;DHT22;7457;50.960;6.830;2023-06-01T09:48:34;25.10;52.00
14733;DHT22;7457;50.960;6.830;2023-06-01T09:51:00;25.20;51.80
14733;DHT22;7457;50.960;6.830;2023-06-01T09:53:25;25.40;51.00
14733;DHT22;7457;50.960;6.830;2023-06-01T09:55:59;25.50;51.10
14733;DHT22;7457;50.960;6.830;2023-06-01T09:58:25;25.60;51.10
14733;DHT22;7457;50.960;6.830;2023-06-01T10:00:52;25.80;50.20
14733;DHT22;7457;50.960;6.830;2023-06-01T10:03:20;25.80;49.80
14733;DHT22;7457;50.960;6.830;2023-06-01T10:05:47;25.80;49.40
14733;DHT22;7457;50.960;6.830;2023-06-01T10:08:15;25.80;49.20
14733;DHT22;7457;50.960;6.830;2023-06-01T10:10:45;25.80;48.80
14733;DHT22;7457;50.960;6.830;2023-06-01T10:13:11;25.80;48.40
14733;DHT22;7457;50.960;6.830;2023-06-01T10:15:37;25.80;48.60
14733;DHT22;7457;50.960;6.830;2023-06-01T10:18:04;25.80;48.70
14733;DHT22;7457;50.960;6.830;2023-06-01T10:20:33;25.90;48.40
14733;DHT22;7457;50.960;6.830;2023-06-01T10:23:01;25.90;48.70
14733;DHT22;7457;50.960;6.830;2023-06-01T10:25:31;25.90;48.80
14733;DHT22;7457;50.960;6.830;2023-06-01T10:28:02;25.90;47.80
14733;DHT22;7457;50.960;6.830;2023-06-01T10:30:29;25.90;48.50
14733;DHT22;7457;50.960;6.830;2023-06-01T10:32:55;25.80;48.80
14733;DHT22;7457;50.960;6.830;2023-06-01T10:40:38;25.80;48.90
14733;DHT22;7457;50.960;6.830;2023-06-01T10:43:04;25.80;49.00
14733;DHT22;7457;50.960;6.830;2023-06-01T10:48:04;25.80;48.90
14733;DHT22;7457;50.960;6.830;2023-06-01T10:50:30;25.80;49.00
14733;DHT22;7457;50.960;6.830;2023-06-01T10:52:56;25.90;49.00
14733;DHT22;7457;50.960;6.830;2023-06-01T10:55:26;25.80;49.00
14733;DHT22;7457;50.960;6.830;2023-06-01T10:58:21;25.80;49.30
14733;DHT22;7457;50.960;6.830;2023-06-01T11:00:54;25.80;48.80
14733;DHT22;7457;50.960;6.830;2023-06-01T11:03:46;25.90;49.10
14733;DHT22;7457;50.960;6.830;2023-06-01T11:06:28;26.00;48.90
14733;DHT22;7457;50.960;6.830;2023-06-01T11:08:56;26.00;48.30
14733;DHT22;7457;50.960;6.830;2023-06-01T11:11:22;25.90;47.80
14733;DHT22;7457;50.960;6.830;2023-06-01T11:14:14;25.90;47.60
14733;DHT22;7457;50.960;6.830;2023-06-01T11:16:41;25.90;48.00
14733;DHT22;7457;50.960;6.830;2023-06-01T11:19:08;25.90;47.70
14733;DHT22;7457;50.960;6.830;2023-06-01T11:24:16;26.00;47.00
14733;DHT22;7457;50.960;6.830;2023-06-01T11:26:49;26.10;47.10
14733;DHT22;7457;50.960;6.830;2023-06-01T11:29:19;26.10;46.90
14733;DHT22;7457;50.960;6.830;2023-06-01T11:31:50;26.10;46.60
14733;DHT22;7457;50.960;6.830;2023-06-01T11:34:18;26.20;46.50
14733;DHT22;7457;50.960;6.830;2023-06-01T11:36:47;26.10;46.50
14733;DHT22;7457;50.960;6.830;2023-06-01T11:39:21;26.10;46.20
14733;DHT22;7457;50.960;6.830;2023-06-01T11:44:33;26.00;45.80
14733;DHT22;7457;50.960;6.830;2023-06-01T11:47:00;26.00;46.20
14733;DHT22;7457;50.960;6.830;2023-06-01T11:49:26;26.10;45.90
14733;DHT22;7457;50.960;6.830;2023-06-01T11:51:53;26.20;45.80
14733;DHT22;7457;50.960;6.830;2023-06-01T11:54:27;26.30;45.20
14733;DHT22;7457;50.960;6.830;2023-06-01T11:56:55;26.40;44.90
14733;DHT22;7457;50.960;6.830;2023-06-01T11:59:21;26.40;44.90
14733;DHT22;7457;50.960;6.830;2023-06-01T12:01:48;26.50;44.90
14733;DHT22;7457;50.960;6.830;2023-06-01T12:04:24;26.50;44.30
14733;DHT22;7457;50.960;6.830;2023-06-01T12:06:51;26.60;44.20
14733;DHT22;7457;50.960;6.830;2023-06-01T12:09:17;26.50;44.20
14733;DHT22;7457;50.960;6.830;2023-06-01T12:11:45;26.50;44.10
14733;DHT22;7457;50.960;6.830;2023-06-01T12:14:12;26.50;43.60
14733;DHT22;7457;50.960;6.830;2023-06-01T12:16:57;26.50;43.90
14733;DHT22;7457;50.960;6.830;2023-06-01T12:19:28;26.40;43.50
14733;DHT22;7457;50.960;6.830;2023-06-01T12:21:56;26.30;43.60
14733;DHT22;7457;50.960;6.830;2023-06-01T12:24:32;26.20;43.50
14733;DHT22;7457;50.960;6.830;2023-06-01T12:26:59;26.10;43.20
14733;DHT22;7457;50.960;6.830;2023-06-01T12:32:04;25.50;43.10
14733;DHT22;7457;50.960;6.830;2023-06-01T12:34:30;25.20;43.80
14733;DHT22;7457;50.960;6.830;2023-06-01T12:36:56;24.90;43.80
14733;DHT22;7457;50.960;6.830;2023-06-01T12:39:32;24.70;44.50
14733;DHT22;7457;50.960;6.830;2023-06-01T12:42:02;24.50;44.70
14733;DHT22;7457;50.960;6.830;2023-06-01T12:44:30;24.40;44.80
14733;DHT22;7457;50.960;6.830;2023-06-01T12:46:57;24.30;44.80
14733;DHT22;7457;50.960;6.830;2023-06-01T12:49:24;24.20;45.30
14733;DHT22;7457;50.960;6.830;2023-06-01T12:51:50;24.10;45.60
14733;DHT22;7457;50.960;6.830;2023-06-01T12:54:16;24.00;45.60
14733;DHT22;7457;50.960;6.830;2023-06-01T12:56:43;24.00;45.70
14733;DHT22;7457;50.960;6.830;2023-06-01T12:59:09;23.90;46.00
14733;DHT22;7457;50.960;6.830;2023-06-01T13:01:35;23.90;46.70
14733;DHT22;7457;50.960;6.830;2023-06-01T13:04:01;23.80;46.90
14733;DHT22;7457;50.960;6.830;2023-06-01T13:06:29;23.90;46.30
14733;DHT22;7457;50.960;6.830;2023-06-01T13:08:54;23.80;46.10
14733;DHT22;7457;50.960;6.830;2023-06-01T13:11:21;23.80;46.60
14733;DHT22;7457;50.960;6.830;2023-06-01T13:13:49;23.70;46.70
14733;DHT22;7457;50.960;6.830;2023-06-01T13:16:15;23.70;46.60
14733;DHT22;7457;50.960;6.830;2023-06-01T13:18:41;23.70;46.60
14733;DHT22;7457;50.960;6.830;2023-06-01T13:21:07;23.70;47.00
14733;DHT22;7457;50.960;6.830;2023-06-01T13:23:33;23.70;47.10
14733;DHT22;7457;50.960;6.830;2023-06-01T13:25:59;23.70;47.10
14733;DHT22;7457;50.960;6.830;2023-06-01T13:28:24;23.70;47.10
14733;DHT22;7457;50.960;6.830;2023-06-01T13:30:50;23.60;47.40
14733;DHT22;7457;50.960;6.830;2023-06-01T13:33:16;23.60;47.60
14733;DHT22;7457;50.960;6.830;2023-06-01T13:35:41;23.60;47.50
14733;DHT22;7457;50.960;6.830;2023-06-01T13:38:07;23.60;47.40
14733;DHT22;7457;50.960;6.830;2023-06-01T13:40:33;23.60;47.50
14733;DHT22;7457;50.960;6.830;2023-06-01T13:42:59;23.60;47.30
14733;DHT22;7457;50.960;6.830;2023-06-01T13:45:25;23.60;47.30
14733;DHT22;7457;50.960;6.830;2023-06-01T13:47:52;23.50;47.20
14733;DHT22;7457;50.960;6.830;2023-06-01T13:50:20;23.50;47.20
14733;DHT22;7457;50.960;6.830;2023-06-01T13:52:46;23.40;47.30
14733;DHT22;7457;50.960;6.830;2023-06-01T13:55:12;23.30;47.10
14733;DHT22;7457;50.960;6.830;2023-06-01T13:57:39;23.30;47.20
14733;DHT22;7457;50.960;6.830;2023-06-01T14:00:06;23.30;47.30
14733;DHT22;7457;50.960;6.830;2023-06-01T14:02:34;23.40;47.40
14733;DHT22;7457;50.960;6.830;2023-06-01T14:05:00;23.40;47.20
14733;DHT22;7457;50.960;6.830;2023-06-01T14:07:26;23.40;47.20
14733;DHT22;7457;50.960;6.830;2023-06-01T14:09:51;23.40;47.50
14733;DHT22;7457;50.960;6.830;2023-06-01T14:12:17;23.40;47.20
14733;DHT22;7457;50.960;6.830;2023-06-01T14:14:43;23.40;47.10
14733;DHT22;7457;50.960;6.830;2023-06-01T14:17:08;23.40;47.40
14733;DHT22;7457;50.960;6.830;2023-06-01T14:19:34;23.40;47.10
14733;DHT22;7457;50.960;6.830;2023-06-01T14:22:00;23.40;47.30
14733;DHT22;7457;50.960;6.830;2023-06-01T14:24:25;23.30;47.30
14733;DHT22;7457;50.960;6.830;2023-06-01T14:26:51;23.20;47.20
14733;DHT22;7457;50.960;6.830;2023-06-01T14:29:17;23.20;47.60
14733;DHT22;7457;50.960;6.830;2023-06-01T14:31:42;23.10;48.00
14733;DHT22;7457;50.960;6.830;2023-06-01T14:34:08;23.00;48.20
14733;DHT22;7457;50.960;6.830;2023-06-01T14:36:34;23.00;48.10
14733;DHT22;7457;50.960;6.830;2023-06-01T14:38:59;23.00;48.10
14733;DHT22;7457;50.960;6.830;2023-06-01T14:41:25;23.00;48.50
14733;DHT22;7457;50.960;6.830;2023-06-01T14:43:51;23.00;48.70
14733;DHT22;7457;50.960;6.830;2023-06-01T14:46:16;23.00;48.80
14733;DHT22;7457;50.960;6.830;2023-06-01T14:48:42;23.00;48.80
14733;DHT22;7457;50.960;6.830;2023-06-01T14:51:08;22.90;48.50
14733;DHT22;7457;50.960;6.830;2023-06-01T14:53:34;22.90;48.50
14733;DHT22;7457;50.960;6.830;2023-06-01T14:56:00;22.80;48.70
14733;DHT22;7457;50.960;6.830;2023-06-01T14:58:26;22.80;48.90
14733;DHT22;7457;50.960;6.830;2023-06-01T15:00:52;22.80;48.90
14733;DHT22;7457;50.960;6.830;2023-06-01T15:03:18;22.80;49.10
14733;DHT22;7457;50.960;6.830;2023-06-01T15:05:44;22.70;49.10
14733;DHT22;7457;50.960;6.830;2023-06-01T15:08:10;22.70;49.30
14733;DHT22;7457;50.960;6.830;2023-06-01T15:10:35;22.60;49.30
14733;DHT22;7457;50.960;6.830;2023-06-01T15:13:01;22.60;49.40
14733;DHT22;7457;50.960;6.830;2023-06-01T15:15:26;22.50;49.40
14733;DHT22;7457;50.960;6.830;2023-06-01T15:17:52;22.50;49.80
14733;DHT22;7457;50.960;6.830;2023-06-01T15:20:18;22.50;49.70
14733;DHT22;7457;50.960;6.830;2023-06-01T15:22:44;22.50;49.60
14733;DHT22;7457;50.960;6.830;2023-06-01T15:25:09;22.40;49.60
14733;DHT22;7457;50.960;6.830;2023-06-01T15:27:35;22.40;49.40
14733;DHT22;7457;50.960;6.830;2023-06-01T15:30:02;22.40;49.50
14733;DHT22;7457;50.960;6.830;2023-06-01T15:32:27;22.30;49.40
14733;DHT22;7457;50.960;6.830;2023-06-01T15:34:53;22.30;49.30
14733;DHT22;7457;50.960;6.830;2023-06-01T15:37:18;22.30;49.40
14733;DHT22;7457;50.960;6.830;2023-06-01T15:39:45;22.20;49.30
14733;DHT22;7457;50.960;6.830;2023-06-01T15:42:11;22.20;49.60
14733;DHT22;7457;50.960;6.830;2023-06-01T15:44:43;22.10;49.90
14733;DHT22;7457;50.960;6.830;2023-06-01T15:47:10;22.20;50.40
14733;DHT22;7457;50.960;6.830;2023-06-01T15:49:38;22.20;49.70
14733;DHT22;7457;50.960;6.830;2023-06-01T15:52:04;22.20;50.30
14733;DHT22;7457;50.960;6.830;2023-06-01T15:54:34;22.20;49.90
14733;DHT22;7457;50.960;6.830;2023-06-01T15:57:00;22.20;49.40
14733;DHT22;7457;50.960;6.830;2023-06-01T15:59:27;22.20;49.60
14733;DHT22;7457;50.960;6.830;2023-06-01T16:01:52;22.20;50.10
14733;DHT22;7457;50.960;6.830;2023-06-01T16:04:19;22.20;50.20
14733;DHT22;7457;50.960;6.830;2023-06-01T16:06:44;22.10;50.10
14733;DHT22;7457;50.960;6.830;2023-06-01T16:09:10;22.10;50.70
14733;DHT22;7457;50.960;6.830;2023-06-01T16:11:36;22.10;50.70
14733;DHT22;7457;50.960;6.830;2023-06-01T16:14:01;22.20;51.00
14733;DHT22;7457;50.960;6.830;2023-06-01T16:16:27;22.30;50.70